Address 0x1822307f5bce3d38a46696fa1AF91ed12c29fb94

 
Txn Hash
Block
From
To
Value [Txn Fee]
0x10c078048dfeb5a88128724d3bf62b705422c55a3b1333f48446c7420df7000773537272021-05-12 18:50:286 days 8 hrs ago0x1822307f5bce3d38a46696fa1af91ed12c29fb94OUT 0x5c8d727b265dbafaba67e050f2f739caeeb4a6f90 BNB0.00110384
0x0beaaea3cc4d142fa7f5ecfc6940dbc879a6a43b157de615225f10e81be9468973474472021-05-12 13:07:356 days 14 hrs ago0x1822307f5bce3d38a46696fa1af91ed12c29fb94OUT 0xc0788a3ad43d79aa53b09c2eacc313a787d1d6070 BNB0.001040622
0x81a9d3872574f30657d3ceb864e96db933aace00b8cff30af615865efb94568b73473802021-05-12 13:04:146 days 14 hrs ago0x1822307f5bce3d38a46696fa1af91ed12c29fb94OUT PancakeSwap: Router v20 BNB0.002139093
0xf997bc14a825b67d50f5e4ddfb99719ea6cb506661fcc751dfc75a07d369cce373425012021-05-12 8:49:466 days 18 hrs ago0x1822307f5bce3d38a46696fa1af91ed12c29fb94OUT PancakeSwap: Router v20 BNB0.001116729
0xee41cb916ca2ad6093cfb69025e27d8e834d2a1abfdc74b09e103b4257fd443673424612021-05-12 8:47:206 days 18 hrs ago0x1822307f5bce3d38a46696fa1af91ed12c29fb94OUT 0xc0788a3ad43d79aa53b09c2eacc313a787d1d6070 BNB0.00086733
0x9011821d94a96bee675301d6d1d8e24fcbde0e3494bd23acff3b95bb5d9afa4373418872021-05-12 8:10:336 days 19 hrs ago0x1822307f5bce3d38a46696fa1af91ed12c29fb94OUT 0x5c8d727b265dbafaba67e050f2f739caeeb4a6f90 BNB0.000791469
0xa5e84d9f8d91a66d7bb9f8ad3ca911e3e779c74cead5e3ba5f512e88072d86a573010462021-05-10 16:23:188 days 11 hrs ago0x1822307f5bce3d38a46696fa1af91ed12c29fb94OUT 0x5c8d727b265dbafaba67e050f2f739caeeb4a6f90 BNB0.00124182
0x453cf4b754701c0ed85a6524b39a7ced6111d6571930d1da0e984162aca9592573010272021-05-10 16:22:028 days 11 hrs ago0x1822307f5bce3d38a46696fa1af91ed12c29fb94OUT 0xc0788a3ad43d79aa53b09c2eacc313a787d1d6070 BNB0.001558071
0x1574a4da3412ae00d815b887fe6d1eab1dc6fbd97f8939977177a841eb7a9d1b73010142021-05-10 16:21:068 days 11 hrs ago0x1822307f5bce3d38a46696fa1af91ed12c29fb94OUT 0xc0788a3ad43d79aa53b09c2eacc313a787d1d6070 BNB0.0008482672
0x988031d70ab77c542cf50775d308a3cf2f722817a9818b4fe0aed3947f35a09173009882021-05-10 16:19:168 days 11 hrs ago0x1822307f5bce3d38a46696fa1af91ed12c29fb94OUT 0xc0788a3ad43d79aa53b09c2eacc313a787d1d6070 BNB0.001563552
0x98cf47c655c55a29cd11ef11bb99f9108711449334fb5f04a29e14b1b4cf260573009372021-05-10 16:15:568 days 11 hrs ago0x1822307f5bce3d38a46696fa1af91ed12c29fb94OUT 0x5c8d727b265dbafaba67e050f2f739caeeb4a6f90 BNB0.000904536
0xd8d43c20b54c898df5f80a8b6697a2a0cb3881b5bd7e4ac7eb53d7889ae3d6ae73009052021-05-10 16:13:598 days 11 hrs ago0x1822307f5bce3d38a46696fa1af91ed12c29fb94OUT 0x5c8d727b265dbafaba67e050f2f739caeeb4a6f90 BNB0.000904536
0x78d8db3f5c88c65feec3a51fe994dfee2c49e653ce4bff2b55de7079b1a8a7a671735532021-05-06 1:58:0913 days 1 hr ago0x1822307f5bce3d38a46696fa1af91ed12c29fb94OUT 0x5c8d727b265dbafaba67e050f2f739caeeb4a6f90 BNB0.00068984
0xbd3bee76e09fd805106df11e8841f4a9c6ace14a9eb22ccaa3673ce9d4668bdf71735352021-05-06 1:57:1513 days 1 hr ago0x1822307f5bce3d38a46696fa1af91ed12c29fb94OUT 0xc0788a3ad43d79aa53b09c2eacc313a787d1d6070 BNB0.000940155
0x2acc1694e1892a928b9e82e4e9934446c47dd5cbf135f1c407f288f68ceced2e71735192021-05-06 1:56:2713 days 1 hr ago0x1822307f5bce3d38a46696fa1af91ed12c29fb94OUT 0xc0788a3ad43d79aa53b09c2eacc313a787d1d6070 BNB0.0007937
0x151f5f5055a6ccdeb19cd5e37726a74004eac5791eb579d2be7eaa8192337db671735112021-05-06 1:56:0313 days 1 hr ago0x1822307f5bce3d38a46696fa1af91ed12c29fb94OUT 0xc0788a3ad43d79aa53b09c2eacc313a787d1d6070 BNB0.00049599
0x9065f380fb779c56aea6a289e7e36b5a1600ebdb7e6e979f2a42aff47c90c47a71734712021-05-06 1:54:0313 days 1 hr ago0x1822307f5bce3d38a46696fa1af91ed12c29fb94OUT 0x5c8d727b265dbafaba67e050f2f739caeeb4a6f90 BNB0.000565335
0xb780cd35c779e910b7c89866f25bbb44aedfe5330f3ccdbcac0171fb8c2ce8a871734702021-05-06 1:54:0013 days 1 hr ago0x1822307f5bce3d38a46696fa1af91ed12c29fb94OUT 0x5c8d727b265dbafaba67e050f2f739caeeb4a6f90 BNB0.000565335
0x16f82267d55898dd40901fee639f61683859f3b3ec8ad5e561302752646d376d71045972021-05-03 15:40:4115 days 11 hrs ago0x1822307f5bce3d38a46696fa1af91ed12c29fb94OUT 0x5c8d727b265dbafaba67e050f2f739caeeb4a6f90 BNB0.00061484
0x59840142e730c5d1cd425f97df8359e9ba3113eadfdb64b5d7f195bb9957745c71045722021-05-03 15:39:2515 days 11 hrs ago0x1822307f5bce3d38a46696fa1af91ed12c29fb94OUT 0xc0788a3ad43d79aa53b09c2eacc313a787d1d6070 BNB0.00096903
0x4b6d9a9d8014bcaa98dfc27ba5626ed03087cfe25c7b2d6389b8a96a1eb81eaa71045602021-05-03 15:38:4915 days 11 hrs ago0x1822307f5bce3d38a46696fa1af91ed12c29fb94OUT 0xc0788a3ad43d79aa53b09c2eacc313a787d1d6070 BNB0.000896245
0xf2b44bc3c5a8a3746024bf46b2e7005188a6880f1c694a0fd47815ac5a2075ce71045532021-05-03 15:38:2815 days 11 hrs ago0x1822307f5bce3d38a46696fa1af91ed12c29fb94OUT 0xc0788a3ad43d79aa53b09c2eacc313a787d1d6070 BNB0.00055679
0x8d32fc7217ae3e15518e1b1238b2521afab65ad2c8e64fb6e6b6b10a044f835871045302021-05-03 15:37:1915 days 11 hrs ago0x1822307f5bce3d38a46696fa1af91ed12c29fb94OUT 0x5c8d727b265dbafaba67e050f2f739caeeb4a6f90 BNB0.00047212
0x8e10469b27dab718f79b81c3abf95e28a9146b910e52858425ac1c7b4c4f0c4171045282021-05-03 15:37:1315 days 11 hrs ago0x1822307f5bce3d38a46696fa1af91ed12c29fb94OUT 0x5c8d727b265dbafaba67e050f2f739caeeb4a6f90 BNB0.000565335
0x71024faf21e6072f675724c6955d00075b12679ac06d1a420d947c1e906e931570673642021-05-02 8:12:0916 days 19 hrs ago0x1822307f5bce3d38a46696fa1af91ed12c29fb94OUT 0x5c8d727b265dbafaba67e050f2f739caeeb4a6f90 BNB0.00061484
[ Download CSV Export 
Parent Txn Hash Block From To Value
Loading

Contract Name:
0 BNB

Compiler Version
0

Optimization Enabled:
0 BNB

Other Settings:
-NA-
Block Transaction Gas Used Reward
Age Block Fee Address BC Fee Address Voting Power Jailed Incoming
Block Uncle Number Difficulty Gas Used Reward
Loading
Loading
Make sure to use the "Vote Down" button for any spammy posts, and the "Vote Up" for interesting conversations.